sensor_id;sensor_type;location;lat;lon;timestamp;pressure;altitude;pressure_sealevel;temperature;humidity
76108;BME280;64834;52.516;10.528;2023-05-07T00:00:53;101486.91;;;8.78;90.51
76108;BME280;64834;52.516;10.528;2023-05-07T00:03:20;101498.13;;;8.77;90.27
76108;BME280;64834;52.516;10.528;2023-05-07T00:05:45;101494.97;;;8.81;90.09
76108;BME280;64834;52.516;10.528;2023-05-07T00:08:11;101501.91;;;8.80;90.14
76108;BME280;64834;52.516;10.528;2023-05-07T00:10:36;101494.41;;;8.85;90.21
76108;BME280;64834;52.516;10.528;2023-05-07T00:13:02;101493.03;;;8.78;89.75
76108;BME280;64834;52.516;10.528;2023-05-07T00:15:27;101495.88;;;8.81;89.27
76108;BME280;64834;52.516;10.528;2023-05-07T00:17:53;101490.75;;;8.71;89.14
76108;BME280;64834;52.516;10.528;2023-05-07T00:20:18;101484.28;;;8.78;89.39
76108;BME280;64834;52.516;10.528;2023-05-07T00:22:43;101489.97;;;8.84;89.60
76108;BME280;64834;52.516;10.528;2023-05-07T00:25:09;101491.44;;;8.92;89.62
76108;BME280;64834;52.516;10.528;2023-05-07T00:27:35;101490.09;;;8.97;89.00
76108;BME280;64834;52.516;10.528;2023-05-07T00:30:00;101494.66;;;8.88;89.60
76108;BME280;64834;52.516;10.528;2023-05-07T00:32:26;101488.25;;;8.73;89.46
76108;BME280;64834;52.516;10.528;2023-05-07T00:34:51;101490.66;;;8.70;88.74
76108;BME280;64834;52.516;10.528;2023-05-07T00:37:16;101487.03;;;8.68;88.42
76108;BME280;64834;52.516;10.528;2023-05-07T00:39:41;101499.13;;;8.67;88.67
76108;BME280;64834;52.516;10.528;2023-05-07T00:42:07;101485.31;;;8.68;88.33
76108;BME280;64834;52.516;10.528;2023-05-07T00:44:33;101482.34;;;8.63;88.63
76108;BME280;64834;52.516;10.528;2023-05-07T00:47:01;101478.25;;;8.67;87.66
76108;BME280;64834;52.516;10.528;2023-05-07T00:49:37;101495.63;;;8.67;87.62
76108;BME280;64834;52.516;10.528;2023-05-07T00:52:02;101479.06;;;8.66;87.52
76108;BME280;64834;52.516;10.528;2023-05-07T00:54:28;101491.22;;;8.77;86.94
76108;BME280;64834;52.516;10.528;2023-05-07T00:56:54;101498.50;;;8.81;86.71
76108;BME280;64834;52.516;10.528;2023-05-07T00:59:20;101492.22;;;8.79;86.98
76108;BME280;64834;52.516;10.528;2023-05-07T01:01:45;101492.81;;;8.75;87.25
76108;BME280;64834;52.516;10.528;2023-05-07T01:04:10;101497.69;;;8.82;87.16
76108;BME280;64834;52.516;10.528;2023-05-07T01:06:36;101490.78;;;8.83;87.60
76108;BME280;64834;52.516;10.528;2023-05-07T01:09:01;101485.44;;;8.81;87.57
76108;BME280;64834;52.516;10.528;2023-05-07T01:11:27;101490.88;;;8.84;87.57
76108;BME280;64834;52.516;10.528;2023-05-07T01:13:52;101489.06;;;8.83;88.29
76108;BME280;64834;52.516;10.528;2023-05-07T01:16:18;101492.13;;;8.78;88.81
76108;BME280;64834;52.516;10.528;2023-05-07T01:18:43;101485.78;;;8.74;88.86
76108;BME280;64834;52.516;10.528;2023-05-07T01:21:11;101497.31;;;8.66;88.84
76108;BME280;64834;52.516;10.528;2023-05-07T01:23:36;101489.06;;;8.72;88.83
76108;BME280;64834;52.516;10.528;2023-05-07T01:26:02;101495.88;;;8.81;88.52
76108;BME280;64834;52.516;10.528;2023-05-07T01:28:27;101498.25;;;8.78;88.93
76108;BME280;64834;52.516;10.528;2023-05-07T01:30:55;101493.03;;;8.78;89.10
76108;BME280;64834;52.516;10.528;2023-05-07T01:33:25;101495.19;;;8.72;89.66
76108;BME280;64834;52.516;10.528;2023-05-07T01:35:53;101500.06;;;8.68;89.84
76108;BME280;64834;52.516;10.528;2023-05-07T01:38:21;101510.25;;;8.64;90.55
76108;BME280;64834;52.516;10.528;2023-05-07T01:40:47;101505.41;;;8.69;90.29
76108;BME280;64834;52.516;10.528;2023-05-07T01:43:12;101503.88;;;8.61;90.48
76108;BME280;64834;52.516;10.528;2023-05-07T01:45:38;101502.88;;;8.59;90.72
76108;BME280;64834;52.516;10.528;2023-05-07T01:48:04;101503.78;;;8.59;90.97
76108;BME280;64834;52.516;10.528;2023-05-07T01:50:30;101502.88;;;8.59;90.97
76108;BME280;64834;52.516;10.528;2023-05-07T01:52:56;101504.34;;;8.55;90.75
76108;BME280;64834;52.516;10.528;2023-05-07T01:55:21;101511.72;;;8.61;90.65
76108;BME280;64834;52.516;10.528;2023-05-07T01:57:47;101510.94;;;8.62;90.33
76108;BME280;64834;52.516;10.528;2023-05-07T02:00:12;101514.31;;;8.61;90.15
76108;BME280;64834;52.516;10.528;2023-05-07T02:02:38;101515.25;;;8.61;89.73
76108;BME280;64834;52.516;10.528;2023-05-07T02:05:04;101519.78;;;8.64;89.89
76108;BME280;64834;52.516;10.528;2023-05-07T02:07:29;101514.47;;;8.62;89.61
76108;BME280;64834;52.516;10.528;2023-05-07T02:09:55;101518.56;;;8.71;89.60
76108;BME280;64834;52.516;10.528;2023-05-07T02:12:21;101515.00;;;8.58;89.61
76108;BME280;64834;52.516;10.528;2023-05-07T02:14:46;101514.03;;;8.68;89.78
76108;BME280;64834;52.516;10.528;2023-05-07T02:17:11;101511.41;;;8.68;89.38
76108;BME280;64834;52.516;10.528;2023-05-07T02:19:36;101505.94;;;8.65;89.40
76108;BME280;64834;52.516;10.528;2023-05-07T02:22:02;101509.34;;;8.64;89.54
76108;BME280;64834;52.516;10.528;2023-05-07T02:24:27;101508.34;;;8.62;88.87
76108;BME280;64834;52.516;10.528;2023-05-07T02:26:52;101509.09;;;8.61;88.74
76108;BME280;64834;52.516;10.528;2023-05-07T02:29:18;101512.19;;;8.55;88.49
76108;BME280;64834;52.516;10.528;2023-05-07T02:31:43;101512.19;;;8.55;88.38
76108;BME280;64834;52.516;10.528;2023-05-07T02:34:08;101512.47;;;8.48;88.48
76108;BME280;64834;52.516;10.528;2023-05-07T02:36:34;101512.63;;;8.50;88.19
76108;BME280;64834;52.516;10.528;2023-05-07T02:39:00;101514.53;;;8.52;88.56
76108;BME280;64834;52.516;10.528;2023-05-07T02:41:25;101520.22;;;8.58;88.23
76108;BME280;64834;52.516;10.528;2023-05-07T02:43:50;101528.59;;;8.54;88.20
76108;BME280;64834;52.516;10.528;2023-05-07T02:46:16;101527.03;;;8.56;88.04
76108;BME280;64834;52.516;10.528;2023-05-07T02:48:41;101518.41;;;8.57;88.02
76108;BME280;64834;52.516;10.528;2023-05-07T02:51:06;101519.22;;;8.56;88.42
76108;BME280;64834;52.516;10.528;2023-05-07T02:53:32;101528.38;;;8.51;87.94
76108;BME280;64834;52.516;10.528;2023-05-07T02:55:58;101522.91;;;8.48;88.10
76108;BME280;64834;52.516;10.528;2023-05-07T02:58:25;101522.25;;;8.51;88.35
76108;BME280;64834;52.516;10.528;2023-05-07T03:00:51;101528.84;;;8.57;88.28
76108;BME280;64834;52.516;10.528;2023-05-07T03:03:16;101525.06;;;8.54;88.39
76108;BME280;64834;52.516;10.528;2023-05-07T03:05:42;101527.47;;;8.51;88.06
76108;BME280;64834;52.516;10.528;2023-05-07T03:08:08;101525.22;;;8.55;87.80
76108;BME280;64834;52.516;10.528;2023-05-07T03:10:33;101528.84;;;8.57;88.06
76108;BME280;64834;52.516;10.528;2023-05-07T03:12:59;101520.22;;;8.58;87.69
76108;BME280;64834;52.516;10.528;2023-05-07T03:15:24;101520.78;;;8.54;87.69
76108;BME280;64834;52.516;10.528;2023-05-07T03:17:49;101522.25;;;8.51;88.02
76108;BME280;64834;52.516;10.528;2023-05-07T03:20:15;101527.91;;;8.45;88.19
76108;BME280;64834;52.516;10.528;2023-05-07T03:22:41;101520.19;;;8.47;88.09
76108;BME280;64834;52.516;10.528;2023-05-07T03:25:06;101520.56;;;8.51;87.50
76108;BME280;64834;52.516;10.528;2023-05-07T03:27:32;101523.69;;;8.47;87.84
76108;BME280;64834;52.516;10.528;2023-05-07T03:29:57;101524.50;;;8.46;88.27
76108;BME280;64834;52.516;10.528;2023-05-07T03:32:23;101516.56;;;8.45;87.94
76108;BME280;64834;52.516;10.528;2023-05-07T03:34:48;101512.47;;;8.48;88.32
76108;BME280;64834;52.516;10.528;2023-05-07T03:37:13;101508.63;;;8.43;88.46
76108;BME280;64834;52.516;10.528;2023-05-07T03:39:39;101499.44;;;8.36;88.81
76108;BME280;64834;52.516;10.528;2023-05-07T03:42:04;101506.16;;;8.34;88.64
76108;BME280;64834;52.516;10.528;2023-05-07T03:44:29;101513.47;;;8.38;88.54
76108;BME280;64834;52.516;10.528;2023-05-07T03:46:55;101515.97;;;8.37;88.78
76108;BME280;64834;52.516;10.528;2023-05-07T03:49:20;101523.13;;;8.40;88.69
76108;BME280;64834;52.516;10.528;2023-05-07T03:51:46;101518.81;;;8.40;88.85
76108;BME280;64834;52.516;10.528;2023-05-07T03:54:11;101524.41;;;8.34;88.74
76108;BME280;64834;52.516;10.528;2023-05-07T03:56:37;101516.50;;;8.33;88.06
76108;BME280;64834;52.516;10.528;2023-05-07T03:59:02;101525.63;;;8.38;87.97
76108;BME280;64834;52.516;10.528;2023-05-07T04:01:27;101521.53;;;8.42;87.77
76108;BME280;64834;52.516;10.528;2023-05-07T04:03:53;101521.78;;;8.45;87.23
76108;BME280;64834;52.516;10.528;2023-05-07T04:06:18;101525.28;;;8.45;85.54
76108;BME280;64834;52.516;10.528;2023-05-07T04:08:43;101514.50;;;8.41;85.50
76108;BME280;64834;52.516;10.528;2023-05-07T04:11:09;101520.63;;;8.41;85.39
76108;BME280;64834;52.516;10.528;2023-05-07T04:13:34;101516.31;;;8.42;85.23
76108;BME280;64834;52.516;10.528;2023-05-07T04:16:01;101525.28;;;8.45;85.40
76108;BME280;64834;52.516;10.528;2023-05-07T04:18:27;101520.44;;;8.50;85.18
76108;BME280;64834;52.516;10.528;2023-05-07T04:20:52;101522.00;;;8.48;85.12
76108;BME280;64834;52.516;10.528;2023-05-07T04:23:17;101527.00;;;8.45;84.75
76108;BME280;64834;52.516;10.528;2023-05-07T04:25:42;101527.34;;;8.49;84.65
76108;BME280;64834;52.516;10.528;2023-05-07T04:28:08;101534.94;;;8.46;84.60
76108;BME280;64834;52.516;10.528;2023-05-07T04:30:33;101531.53;;;8.47;85.03
76108;BME280;64834;52.516;10.528;2023-05-07T04:32:58;101532.56;;;8.49;84.75
76108;BME280;64834;52.516;10.528;2023-05-07T04:35:24;101528.91;;;8.47;84.61
76108;BME280;64834;52.516;10.528;2023-05-07T04:37:49;101528.91;;;8.47;84.80
76108;BME280;64834;52.516;10.528;2023-05-07T04:40:14;101526.44;;;8.49;84.65
76108;BME280;64834;52.516;10.528;2023-05-07T04:42:41;101530.63;;;8.47;84.42
76108;BME280;64834;52.516;10.528;2023-05-07T04:45:06;101545.94;;;8.54;84.21
76108;BME280;64834;52.516;10.528;2023-05-07T04:47:32;101532.91;;;8.54;84.23
76108;BME280;64834;52.516;10.528;2023-05-07T04:49:57;101540.25;;;8.48;84.64
76108;BME280;64834;52.516;10.528;2023-05-07T04:52:23;101551.75;;;8.50;84.25
76108;BME280;64834;52.516;10.528;2023-05-07T04:54:48;101551.31;;;8.55;84.38
76108;BME280;64834;52.516;10.528;2023-05-07T04:57:13;101565.91;;;8.53;84.22
76108;BME280;64834;52.516;10.528;2023-05-07T04:59:39;101567.97;;;8.57;84.62
76108;BME280;64834;52.516;10.528;2023-05-07T05:02:04;101568.44;;;8.63;84.29
76108;BME280;64834;52.516;10.528;2023-05-07T05:04:30;101575.84;;;8.69;84.42
76108;BME280;64834;52.516;10.528;2023-05-07T05:06:55;101577.66;;;8.70;84.57
76108;BME280;64834;52.516;10.528;2023-05-07T05:09:21;101583.72;;;8.81;84.40
76108;BME280;64834;52.516;10.528;2023-05-07T05:11:46;101586.50;;;8.72;84.49
76108;BME280;64834;52.516;10.528;2023-05-07T05:14:11;101602.84;;;8.70;84.66
76108;BME280;64834;52.516;10.528;2023-05-07T05:16:37;101583.31;;;8.64;84.77
76108;BME280;64834;52.516;10.528;2023-05-07T05:19:02;101587.63;;;8.64;84.59
76108;BME280;64834;52.516;10.528;2023-05-07T05:21:27;101592.03;;;8.65;84.31
76108;BME280;64834;52.516;10.528;2023-05-07T05:23:53;101591.47;;;8.57;84.67
76108;BME280;64834;52.516;10.528;2023-05-07T05:26:18;101580.91;;;8.56;84.51
76108;BME280;64834;52.516;10.528;2023-05-07T05:28:44;101589.06;;;8.49;85.02
76108;BME280;64834;52.516;10.528;2023-05-07T05:31:09;101587.38;;;8.61;85.16
76108;BME280;64834;52.516;10.528;2023-05-07T05:33:35;101590.13;;;8.62;85.11
76108;BME280;64834;52.516;10.528;2023-05-07T05:36:00;101591.50;;;8.69;85.02
76108;BME280;64834;52.516;10.528;2023-05-07T05:38:26;101578.81;;;8.74;84.97
76108;BME280;64834;52.516;10.528;2023-05-07T05:40:51;101581.75;;;8.78;84.60
76108;BME280;64834;52.516;10.528;2023-05-07T05:43:16;101585.09;;;8.87;84.66
76108;BME280;64834;52.516;10.528;2023-05-07T05:45:41;101586.47;;;8.94;84.75
76108;BME280;64834;52.516;10.528;2023-05-07T05:48:07;101579.47;;;8.71;84.80
76108;BME280;64834;52.516;10.528;2023-05-07T05:50:33;101596.47;;;8.66;85.05
76108;BME280;64834;52.516;10.528;2023-05-07T05:53:00;101595.66;;;8.67;85.17
76108;BME280;64834;52.516;10.528;2023-05-07T05:55:26;101603.06;;;8.73;84.99
76108;BME280;64834;52.516;10.528;2023-05-07T05:57:51;101595.50;;;8.76;84.51
76108;BME280;64834;52.516;10.528;2023-05-07T06:00:17;101598.94;;;8.86;85.05
76108;BME280;64834;52.516;10.528;2023-05-07T06:02:42;101604.69;;;8.82;84.48
76108;BME280;64834;52.516;10.528;2023-05-07T06:05:10;101609.66;;;8.79;84.64
76108;BME280;64834;52.516;10.528;2023-05-07T06:07:35;101591.66;;;8.82;84.40
76108;BME280;64834;52.516;10.528;2023-05-07T06:10:01;101610.25;;;8.75;84.55
76108;BME280;64834;52.516;10.528;2023-05-07T06:12:26;101617.03;;;8.73;84.82
76108;BME280;64834;52.516;10.528;2023-05-07T06:14:52;101619.88;;;8.76;85.51
76108;BME280;64834;52.516;10.528;2023-05-07T06:17:17;101618.19;;;8.77;85.47
76108;BME280;64834;52.516;10.528;2023-05-07T06:19:43;101615.22;;;8.72;85.36
76108;BME280;64834;52.516;10.528;2023-05-07T06:22:08;101618.06;;;8.75;85.91
76108;BME280;64834;52.516;10.528;2023-05-07T06:24:33;101615.13;;;8.82;85.62
76108;BME280;64834;52.516;10.528;2023-05-07T06:26:59;101610.13;;;8.85;85.69
76108;BME280;64834;52.516;10.528;2023-05-07T06:29:25;101619.66;;;8.85;85.18
76108;BME280;64834;52.516;10.528;2023-05-07T06:31:55;101613.66;;;8.86;85.24
76108;BME280;64834;52.516;10.528;2023-05-07T06:34:20;101610.88;;;8.95;85.05
76108;BME280;64834;52.516;10.528;2023-05-07T06:36:46;101612.56;;;8.94;84.94
76108;BME280;64834;52.516;10.528;2023-05-07T06:39:11;101611.53;;;8.92;85.03
76108;BME280;64834;52.516;10.528;2023-05-07T06:41:37;101615.28;;;8.96;85.21
76108;BME280;64834;52.516;10.528;2023-05-07T06:44:02;101616.31;;;8.98;84.76
76108;BME280;64834;52.516;10.528;2023-05-07T06:46:28;101613.38;;;8.93;84.54
76108;BME280;64834;52.516;10.528;2023-05-07T06:48:53;101615.41;;;8.97;84.82
76108;BME280;64834;52.516;10.528;2023-05-07T06:51:20;101614.84;;;9.01;84.92
76108;BME280;64834;52.516;10.528;2023-05-07T06:53:45;101616.78;;;9.04;84.70
76108;BME280;64834;52.516;10.528;2023-05-07T06:56:10;101612.78;;;8.97;84.60
76108;BME280;64834;52.516;10.528;2023-05-07T06:58:37;101624.50;;;9.02;84.44
76108;BME280;64834;52.516;10.528;2023-05-07T07:01:02;101619.06;;;8.99;84.19
76108;BME280;64834;52.516;10.528;2023-05-07T07:03:27;101620.06;;;9.01;84.57
76108;BME280;64834;52.516;10.528;2023-05-07T07:05:54;101617.00;;;8.95;84.33
76108;BME280;64834;52.516;10.528;2023-05-07T07:08:19;101615.06;;;8.93;84.35
76108;BME280;64834;52.516;10.528;2023-05-07T07:10:46;101613.16;;;9.02;84.05
76108;BME280;64834;52.516;10.528;2023-05-07T07:13:11;101621.81;;;9.12;83.94
76108;BME280;64834;52.516;10.528;2023-05-07T07:15:37;101622.03;;;9.15;83.81
76108;BME280;64834;52.516;10.528;2023-05-07T07:18:02;101625.50;;;9.04;83.65
76108;BME280;64834;52.516;10.528;2023-05-07T07:20:28;101630.28;;;9.10;83.77
76108;BME280;64834;52.516;10.528;2023-05-07T07:22:53;101621.38;;;9.18;83.61
76108;BME280;64834;52.516;10.528;2023-05-07T07:25:18;101614.53;;;9.08;83.00
76108;BME280;64834;52.516;10.528;2023-05-07T07:27:44;101615.34;;;9.19;82.96
76108;BME280;64834;52.516;10.528;2023-05-07T07:30:09;101629.97;;;9.29;82.21
76108;BME280;64834;52.516;10.528;2023-05-07T07:32:35;101622.28;;;9.30;81.69
76108;BME280;64834;52.516;10.528;2023-05-07T07:35:00;101627.06;;;9.24;81.87
76108;BME280;64834;52.516;10.528;2023-05-07T07:37:26;101627.41;;;9.40;81.70
76108;BME280;64834;52.516;10.528;2023-05-07T07:39:51;101630.22;;;9.32;81.13
76108;BME280;64834;52.516;10.528;2023-05-07T07:42:17;101621.72;;;9.46;81.22
76108;BME280;64834;52.516;10.528;2023-05-07T07:44:43;101627.97;;;9.60;81.20
76108;BME280;64834;52.516;10.528;2023-05-07T07:47:08;101626.06;;;9.57;80.20
76108;BME280;64834;52.516;10.528;2023-05-07T07:49:34;101629.13;;;9.52;79.89
76108;BME280;64834;52.516;10.528;2023-05-07T07:51:59;101635.91;;;9.61;80.01
76108;BME280;64834;52.516;10.528;2023-05-07T07:54:25;101635.34;;;9.65;80.44
76108;BME280;64834;52.516;10.528;2023-05-07T07:56:51;101637.31;;;9.56;80.51
76108;BME280;64834;52.516;10.528;2023-05-07T07:59:16;101633.97;;;9.47;80.26
76108;BME280;64834;52.516;10.528;2023-05-07T08:01:44;101638.66;;;9.63;80.41
76108;BME280;64834;52.516;10.528;2023-05-07T08:04:09;101633.75;;;9.67;80.40
76108;BME280;64834;52.516;10.528;2023-05-07T08:06:35;101640.59;;;9.65;80.46
76108;BME280;64834;52.516;10.528;2023-05-07T08:09:00;101648.78;;;9.82;80.14
76108;BME280;64834;52.516;10.528;2023-05-07T08:11:26;101648.44;;;9.77;80.00
76108;BME280;64834;52.516;10.528;2023-05-07T08:13:51;101646.50;;;9.75;79.86
76108;BME280;64834;52.516;10.528;2023-05-07T08:16:17;101647.63;;;9.78;79.33
76108;BME280;64834;52.516;10.528;2023-05-07T08:18:42;101644.91;;;9.77;79.77
76108;BME280;64834;52.516;10.528;2023-05-07T08:21:08;101652.41;;;9.84;80.04
76108;BME280;64834;52.516;10.528;2023-05-07T08:23:33;101649.69;;;9.82;79.60
76108;BME280;64834;52.516;10.528;2023-05-07T08:25:59;101650.59;;;9.83;79.22
76108;BME280;64834;52.516;10.528;2023-05-07T08:28:25;101649.44;;;9.91;79.68
76108;BME280;64834;52.516;10.528;2023-05-07T08:30:50;101647.97;;;9.94;79.21
76108;BME280;64834;52.516;10.528;2023-05-07T08:33:16;101654.91;;;9.94;79.07
76108;BME280;64834;52.516;10.528;2023-05-07T08:35:41;101646.47;;;9.86;79.31
76108;BME280;64834;52.516;10.528;2023-05-07T08:38:06;101641.38;;;9.88;79.68
76108;BME280;64834;52.516;10.528;2023-05-07T08:40:37;101650.34;;;9.91;79.33
76108;BME280;64834;52.516;10.528;2023-05-07T08:43:05;101649.34;;;9.78;79.86
76108;BME280;64834;52.516;10.528;2023-05-07T08:45:33;101660.91;;;9.93;80.04
76108;BME280;64834;52.516;10.528;2023-05-07T08:47:59;101657.97;;;9.88;79.05
76108;BME280;64834;52.516;10.528;2023-05-07T08:50:27;101654.91;;;9.94;79.33
76108;BME280;64834;52.516;10.528;2023-05-07T08:52:52;101655.34;;;10.00;78.78
76108;BME280;64834;52.516;10.528;2023-05-07T08:55:18;101663.75;;;10.08;79.05
76108;BME280;64834;52.516;10.528;2023-05-07T08:57:43;101662.84;;;10.19;79.09
76108;BME280;64834;52.516;10.528;2023-05-07T09:00:09;101666.81;;;10.37;77.44
76108;BME280;64834;52.516;10.528;2023-05-07T09:02:35;101663.38;;;10.38;77.27
76108;BME280;64834;52.516;10.528;2023-05-07T09:05:01;101664.63;;;10.43;77.32
76108;BME280;64834;52.516;10.528;2023-05-07T09:07:27;101663.56;;;10.53;77.73
76108;BME280;64834;52.516;10.528;2023-05-07T09:09:52;101660.97;;;10.41;76.92
76108;BME280;64834;52.516;10.528;2023-05-07T09:12:20;101670.66;;;10.31;77.49
76108;BME280;64834;52.516;10.528;2023-05-07T09:14:45;101669.19;;;10.34;77.28
76108;BME280;64834;52.516;10.528;2023-05-07T09:17:12;101658.06;;;10.62;76.79
76108;BME280;64834;52.516;10.528;2023-05-07T09:19:37;101659.72;;;10.73;76.08
76108;BME280;64834;52.516;10.528;2023-05-07T09:22:04;101675.81;;;10.66;75.32
76108;BME280;64834;52.516;10.528;2023-05-07T09:24:30;101659.53;;;10.70;74.99
76108;BME280;64834;52.516;10.528;2023-05-07T09:27:00;101662.00;;;10.68;74.71
76108;BME280;64834;52.516;10.528;2023-05-07T09:29:26;101658.50;;;10.68;74.69
76108;BME280;64834;52.516;10.528;2023-05-07T09:31:54;101660.97;;;10.78;74.44
76108;BME280;64834;52.516;10.528;2023-05-07T09:34:19;101673.22;;;10.91;74.11
76108;BME280;64834;52.516;10.528;2023-05-07T09:36:44;101661.47;;;11.11;73.81
76108;BME280;64834;52.516;10.528;2023-05-07T09:39:10;101666.09;;;11.01;73.49
76108;BME280;64834;52.516;10.528;2023-05-07T09:41:43;101670.56;;;11.16;74.16
76108;BME280;64834;52.516;10.528;2023-05-07T09:44:09;101673.09;;;10.89;73.79
76108;BME280;64834;52.516;10.528;2023-05-07T09:46:36;101678.44;;;10.91;73.71
76108;BME280;64834;52.516;10.528;2023-05-07T09:49:06;101672.88;;;10.86;73.44
76108;BME280;64834;52.516;10.528;2023-05-07T09:51:41;101662.16;;;10.95;73.33
76108;BME280;64834;52.516;10.528;2023-05-07T09:54:08;101671.16;;;11.12;72.91
76108;BME280;64834;52.516;10.528;2023-05-07T09:56:33;101668.25;;;11.07;72.42
76108;BME280;64834;52.516;10.528;2023-05-07T09:59:00;101664.16;;;11.37;72.81
76108;BME280;64834;52.516;10.528;2023-05-07T10:01:25;101674.91;;;11.53;72.49
76108;BME280;64834;52.516;10.528;2023-05-07T10:03:52;101668.53;;;11.50;71.78
76108;BME280;64834;52.516;10.528;2023-05-07T10:06:19;101671.34;;;11.40;72.21
76108;BME280;64834;52.516;10.528;2023-05-07T10:08:45;101683.53;;;11.39;72.54
76108;BME280;64834;52.516;10.528;2023-05-07T10:11:11;101679.47;;;11.31;72.92
76108;BME280;64834;52.516;10.528;2023-05-07T10:13:37;101676.66;;;11.28;72.57
76108;BME280;64834;52.516;10.528;2023-05-07T10:16:03;101675.03;;;11.30;72.65
76108;BME280;64834;52.516;10.528;2023-05-07T10:18:32;101671.34;;;11.40;72.38
76108;BME280;64834;52.516;10.528;2023-05-07T10:21:11;101668.00;;;11.42;72.32
76108;BME280;64834;52.516;10.528;2023-05-07T10:23:37;101673.19;;;11.54;72.52
76108;BME280;64834;52.516;10.528;2023-05-07T10:26:05;101683.75;;;11.55;72.13
76108;BME280;64834;52.516;10.528;2023-05-07T10:28:34;101672.44;;;11.43;71.81
76108;BME280;64834;52.516;10.528;2023-05-07T10:33:44;101680.22;;;11.42;73.21
76108;BME280;64834;52.516;10.528;2023-05-07T10:36:12;101673.22;;;11.29;73.62
76108;BME280;64834;52.516;10.528;2023-05-07T10:38:37;101682.81;;;11.28;73.75
76108;BME280;64834;52.516;10.528;2023-05-07T10:41:04;101676.97;;;11.32;74.32
76108;BME280;64834;52.516;10.528;2023-05-07T10:43:40;101684.47;;;11.53;73.95
76108;BME280;64834;52.516;10.528;2023-05-07T10:51:29;101688.50;;;11.48;73.51
76108;BME280;64834;52.516;10.528;2023-05-07T10:56:43;101682.69;;;11.78;71.13
76108;BME280;64834;52.516;10.528;2023-05-07T11:01:56;101670.91;;;11.85;70.98
76108;BME280;64834;52.516;10.528;2023-05-07T11:04:27;101680.19;;;11.93;71.07
76108;BME280;64834;52.516;10.528;2023-05-07T11:15:02;101692.94;;;11.75;71.48
76108;BME280;64834;52.516;10.528;2023-05-07T11:17:27;101693.25;;;11.67;71.33
76108;BME280;64834;52.516;10.528;2023-05-07T11:19:57;101685.78;;;11.59;71.71
76108;BME280;64834;52.516;10.528;2023-05-07T11:24:59;101696.78;;;11.54;71.89
76108;BME280;64834;52.516;10.528;2023-05-07T11:27:25;101687.69;;;11.49;72.15
76108;BME280;64834;52.516;10.528;2023-05-07T11:29:51;101696.78;;;11.54;71.94
76108;BME280;64834;52.516;10.528;2023-05-07T11:32:22;101693.50;;;11.31;72.25
76108;BME280;64834;52.516;10.528;2023-05-07T11:34:51;101683.28;;;11.23;72.46
76108;BME280;64834;52.516;10.528;2023-05-07T11:37:17;101694.66;;;11.23;72.91
76108;BME280;64834;52.516;10.528;2023-05-07T11:39:43;101700.50;;;11.44;71.94
76108;BME280;64834;52.516;10.528;2023-05-07T11:42:28;101697.88;;;11.44;71.32
76108;BME280;64834;52.516;10.528;2023-05-07T11:44:54;101688.31;;;11.71;71.76
76108;BME280;64834;52.516;10.528;2023-05-07T11:47:20;101693.16;;;11.78;71.15
76108;BME280;64834;52.516;10.528;2023-05-07T11:49:49;101677.16;;;11.87;70.55
76108;BME280;64834;52.516;10.528;2023-05-07T11:52:16;101688.28;;;11.83;70.27
76108;BME280;64834;52.516;10.528;2023-05-07T11:54:48;101682.78;;;11.80;70.76
76108;BME280;64834;52.516;10.528;2023-05-07T11:57:14;101692.91;;;11.87;70.53
76108;BME280;64834;52.516;10.528;2023-05-07T11:59:40;101692.63;;;11.96;70.50
76108;BME280;64834;52.516;10.528;2023-05-07T12:02:06;101692.38;;;12.19;70.39
76108;BME280;64834;52.516;10.528;2023-05-07T12:04:31;101694.28;;;12.35;69.57
76108;BME280;64834;52.516;10.528;2023-05-07T12:06:56;101696.09;;;12.36;69.05
76108;BME280;64834;52.516;10.528;2023-05-07T12:09:22;101692.91;;;12.27;68.87
76108;BME280;64834;52.516;10.528;2023-05-07T12:11:48;101689.94;;;12.35;67.95
76108;BME280;64834;52.516;10.528;2023-05-07T12:14:13;101691.94;;;12.81;67.01
76108;BME280;64834;52.516;10.528;2023-05-07T12:16:40;101683.16;;;13.08;67.33
76108;BME280;64834;52.516;10.528;2023-05-07T12:19:06;101693.56;;;12.79;66.68
76108;BME280;64834;52.516;10.528;2023-05-07T12:21:34;101686.56;;;13.07;65.70
76108;BME280;64834;52.516;10.528;2023-05-07T12:23:59;101688.41;;;13.08;66.52
76108;BME280;64834;52.516;10.528;2023-05-07T12:26:25;101695.78;;;13.14;66.10
76108;BME280;64834;52.516;10.528;2023-05-07T12:28:50;101695.09;;;13.03;67.08
76108;BME280;64834;52.516;10.528;2023-05-07T12:31:16;101697.53;;;13.00;66.77
76108;BME280;64834;52.516;10.528;2023-05-07T12:33:41;101683.31;;;12.96;67.15
76108;BME280;64834;52.516;10.528;2023-05-07T12:36:07;101694.56;;;12.81;66.57
76108;BME280;64834;52.516;10.528;2023-05-07T12:38:37;101697.31;;;12.69;66.67
76108;BME280;64834;52.516;10.528;2023-05-07T12:41:04;101693.97;;;12.85;67.08
76108;BME280;64834;52.516;10.528;2023-05-07T12:43:29;101697.56;;;13.15;65.85
76108;BME280;64834;52.516;10.528;2023-05-07T12:45:58;101693.56;;;13.35;65.15
76108;BME280;64834;52.516;10.528;2023-05-07T12:48:25;101679.41;;;13.62;63.93
76108;BME280;64834;52.516;10.528;2023-05-07T12:50:56;101678.16;;;13.70;63.75
76108;BME280;64834;52.516;10.528;2023-05-07T12:53:23;101675.78;;;13.60;64.02
76108;BME280;64834;52.516;10.528;2023-05-07T12:55:50;101683.16;;;13.66;63.33
76108;BME280;64834;52.516;10.528;2023-05-07T12:58:21;101683.56;;;13.44;64.18
76108;BME280;64834;52.516;10.528;2023-05-07T13:00:48;101678.53;;;13.47;64.31
76108;BME280;64834;52.516;10.528;2023-05-07T13:03:22;101671.53;;;13.62;64.04
76108;BME280;64834;52.516;10.528;2023-05-07T13:05:48;101669.25;;;13.68;64.13